createdAt,value
2022-11-20T00:02:26.363Z,96616.78
2022-11-20T00:05:13.473Z,96608.91
2022-11-20T00:08:00.361Z,96605.81
2022-11-20T00:10:49.233Z,96602.66
2022-11-20T00:13:41.288Z,96600.03
2022-11-20T00:16:39.009Z,96605.81
2022-11-20T00:19:27.384Z,96591.78
2022-11-20T00:22:15.394Z,96598.09
2022-11-20T00:25:11.038Z,96585.25
2022-11-20T00:27:58.063Z,96585.72
2022-11-20T00:30:46.950Z,96606.13
2022-11-20T00:33:34.125Z,96606.94
2022-11-20T00:36:26.973Z,96615.66
2022-11-20T00:39:13.871Z,96614.16
2022-11-20T00:42:00.844Z,96609.88
2022-11-20T00:44:50.727Z,96614.16
2022-11-20T00:47:37.589Z,96610.53
2022-11-20T00:50:25.727Z,96602.00
2022-11-20T00:53:12.645Z,96608.91
2022-11-20T00:56:06.358Z,96604.75
2022-11-20T00:59:01.527Z,96613.16
2022-11-20T01:01:50.887Z,96601.31
2022-11-20T01:04:37.947Z,96595.91
2022-11-20T01:07:27.903Z,96593.72
2022-11-20T01:10:15.030Z,96595.09
2022-11-20T01:13:25.498Z,96594.25
2022-11-20T01:16:15.585Z,96587.13
2022-11-20T01:19:05.351Z,96601.09
2022-11-20T01:21:55.713Z,96599.97
2022-11-20T01:24:47.636Z,96607.38
2022-11-20T01:27:37.402Z,96598.84
2022-11-20T01:30:24.300Z,96603.94
2022-11-20T01:33:11.153Z,96611.69
2022-11-20T01:36:07.508Z,96615.13
2022-11-20T01:38:55.971Z,96608.53
2022-11-20T01:42:05.718Z,96606.88
2022-11-20T01:44:59.362Z,96599.16
2022-11-20T01:47:50.445Z,96594.72
2022-11-20T01:50:39.954Z,96604.09
2022-11-20T01:53:29.789Z,96597.13
2022-11-20T01:56:17.088Z,96599.97
2022-11-20T01:59:05.221Z,96605.75
2022-11-20T02:01:52.300Z,96609.34
2022-11-20T02:04:40.167Z,96605.09
2022-11-20T02:07:27.686Z,96603.13
2022-11-20T02:10:14.645Z,96590.28
2022-11-20T02:13:21.321Z,96587.31
2022-11-20T02:16:13.176Z,96596.53
2022-11-20T02:19:03.696Z,96585.19
2022-11-20T02:22:03.769Z,96596.22
2022-11-20T02:24:51.813Z,96594.41
2022-11-20T02:27:38.900Z,96577.78
2022-11-20T02:30:25.697Z,96603.13
2022-11-20T02:33:14.834Z,96592.09
2022-11-20T02:36:01.771Z,96586.19
2022-11-20T02:38:49.594Z,96580.94
2022-11-20T02:41:38.173Z,96583.56
2022-11-20T02:44:27.155Z,96598.56
2022-11-20T02:47:16.826Z,96597.72
2022-11-20T02:50:04.636Z,96599.50
2022-11-20T02:52:51.627Z,96582.03
2022-11-20T02:55:40.594Z,96587.53
2022-11-20T02:58:27.707Z,96583.56
2022-11-20T03:01:14.851Z,96586.19
2022-11-20T03:04:01.939Z,96574.16
2022-11-20T03:06:48.773Z,96594.25
2022-11-20T03:09:38.048Z,96583.91
2022-11-20T03:12:27.686Z,96583.75
2022-11-20T03:15:14.741Z,96589.97
2022-11-20T03:18:01.783Z,96580.75
2022-11-20T03:20:48.629Z,96581.44
2022-11-20T03:23:35.651Z,96581.56
2022-11-20T03:26:25.206Z,96579.78
2022-11-20T03:29:12.076Z,96578.94
2022-11-20T03:31:59.080Z,96585.19
2022-11-20T03:34:45.902Z,96581.56
2022-11-20T03:37:35.841Z,96579.78
2022-11-20T03:40:22.871Z,96587.53
2022-11-20T03:43:10.627Z,96587.13
2022-11-20T03:45:57.587Z,96581.88
2022-11-20T03:48:50.121Z,96576.31
2022-11-20T03:51:38.343Z,96584.06
2022-11-20T03:54:25.141Z,96583.22
2022-11-20T03:57:11.957Z,96579.94
2022-11-20T03:59:59.057Z,96586.69
2022-11-20T04:02:45.845Z,96578.94
2022-11-20T04:05:34.561Z,96588.63
2022-11-20T04:08:21.390Z,96574.81
2022-11-20T04:11:25.732Z,96577.97
2022-11-20T04:14:15.313Z,96577.31
2022-11-20T04:17:02.192Z,96581.56
2022-11-20T04:19:49.074Z,96570.53
2022-11-20T04:22:35.992Z,96568.59
2022-11-20T04:25:22.889Z,96570.25
2022-11-20T04:28:09.735Z,96566.63
2022-11-20T04:31:06.198Z,96569.72
2022-11-20T04:33:53.202Z,96564.00
2022-11-20T04:36:40.169Z,96558.91
2022-11-20T04:39:29.851Z,96557.09
2022-11-20T04:42:31.901Z,96573.88
2022-11-20T04:45:18.796Z,96563.34
2022-11-20T04:48:05.846Z,96553.97
2022-11-20T04:50:52.880Z,96547.22
2022-11-20T04:53:39.771Z,96561.53
2022-11-20T04:56:26.643Z,96565.16
2022-11-20T04:59:13.409Z,96549.53
2022-11-20T05:02:00.282Z,96551.16
2022-11-20T05:04:47.151Z,96555.47
2022-11-20T05:07:34.175Z,96545.91
2022-11-20T05:10:20.984Z,96554.66
2022-11-20T05:13:10.564Z,96550.22
2022-11-20T05:16:02.803Z,96552.69
2022-11-20T05:18:50.595Z,96552.84
2022-11-20T05:21:37.407Z,96554.50
2022-11-20T05:24:24.214Z,96552.97
2022-11-20T05:27:11.079Z,96554.78
2022-11-20T05:29:57.928Z,96548.72
2022-11-20T05:32:44.716Z,96548.72
2022-11-20T05:35:31.522Z,96544.28
2022-11-20T05:38:18.343Z,96545.25
2022-11-20T05:41:15.744Z,96539.84
2022-11-20T05:44:02.638Z,96545.91
2022-11-20T05:46:49.506Z,96550.22
2022-11-20T05:49:36.330Z,96546.91
2022-11-20T05:52:23.190Z,96540.63
2022-11-20T05:55:10.114Z,96548.72
2022-11-20T05:57:56.921Z,96548.88
2022-11-20T06:00:43.673Z,96549.53
2022-11-20T06:03:30.435Z,96544.44
2022-11-20T06:06:20.551Z,96549.69
2022-11-20T06:09:07.433Z,96541.94
2022-11-20T06:11:54.297Z,96546.25
2022-11-20T06:14:41.084Z,96545.72
2022-11-20T06:17:27.847Z,96548.03
2022-11-20T06:20:14.800Z,96548.03
2022-11-20T06:23:03.335Z,96544.59
2022-11-20T06:25:50.104Z,96542.78
2022-11-20T06:28:38.336Z,96558.41
2022-11-20T06:38:58.987Z,96532.50
2022-11-20T06:42:09.440Z,96530.75
2022-11-20T06:45:14.584Z,96523.81
2022-11-20T06:48:12.711Z,96533.38
2022-11-20T06:51:32.670Z,96543.72
2022-11-20T06:54:21.918Z,96546.50
2022-11-20T06:57:22.856Z,96554.28
2022-11-20T07:00:30.687Z,96552.28
2022-11-20T07:03:22.525Z,96559.69
2022-11-20T07:06:16.200Z,96558.34
2022-11-20T07:09:08.521Z,96560.00
2022-11-20T07:11:58.238Z,96571.00
2022-11-20T07:14:45.019Z,96571.19
2022-11-20T07:17:40.862Z,96574.63
2022-11-20T07:20:43.847Z,96561.41
2022-11-20T07:23:30.699Z,96570.34
2022-11-20T07:26:17.610Z,96572.31
2022-11-20T07:29:04.470Z,96574.63
2022-11-20T07:31:51.681Z,96579.88
2022-11-20T07:34:38.533Z,96583.34
2022-11-20T07:37:25.288Z,96583.16
2022-11-20T07:40:13.340Z,96578.91
2022-11-20T07:43:01.953Z,96574.09
2022-11-20T07:45:51.462Z,96567.69
2022-11-20T07:48:38.713Z,96581.69
2022-11-20T07:51:31.116Z,96576.44
2022-11-20T07:54:17.963Z,96568.47
2022-11-20T07:57:04.698Z,96574.63
2022-11-20T07:59:51.485Z,96576.44
2022-11-20T08:02:40.022Z,96568.56
2022-11-20T08:05:29.670Z,96571.00
2022-11-20T08:08:21.812Z,96571.66
2022-11-20T08:11:27.456Z,96562.97
2022-11-20T08:14:14.365Z,96562.16
2022-11-20T08:17:01.166Z,96569.91
2022-11-20T08:19:48.704Z,96569.72
2022-11-20T08:22:35.693Z,96562.16
2022-11-20T08:25:22.485Z,96565.59
2022-11-20T08:28:21.778Z,96560.50
2022-11-20T08:31:10.754Z,96570.84
2022-11-20T08:34:07.725Z,96557.06
2022-11-20T08:36:56.001Z,96565.47
2022-11-20T08:39:43.107Z,96561.84
2022-11-20T08:42:29.891Z,96562.16
2022-11-20T08:45:17.357Z,96571.53
2022-11-20T08:48:05.541Z,96572.53
2022-11-20T08:50:52.417Z,96567.28
2022-11-20T08:53:39.849Z,96576.78
2022-11-20T08:56:26.654Z,96579.41
2022-11-20T09:02:22.254Z,96565.97
2022-11-20T09:05:09.070Z,96571.38
2022-11-20T09:07:59.329Z,96573.88
2022-11-20T09:10:46.099Z,96565.97
2022-11-20T09:13:34.690Z,96558.41
2022-11-20T09:16:21.463Z,96573.03
2022-11-20T09:19:36.673Z,96568.75
2022-11-20T09:22:15.259Z,96563.66
2022-11-20T09:25:02.051Z,96575.66
2022-11-20T09:27:48.895Z,96579.25
2022-11-20T09:30:35.915Z,96577.31
2022-11-20T09:33:25.777Z,96566.94
2022-11-20T09:36:12.586Z,96563.66
2022-11-20T09:38:59.471Z,96567.91
2022-11-20T09:41:59.762Z,96555.91
2022-11-20T09:45:04.917Z,96558.22
2022-11-20T09:48:33.819Z,96549.00
2022-11-20T09:51:32.171Z,96554.28
2022-11-20T09:54:20.945Z,96563.78
2022-11-20T09:57:22.755Z,96570.84
2022-11-20T10:00:19.358Z,96564.13
2022-11-20T10:03:15.938Z,96570.03
2022-11-20T10:06:03.852Z,96572.66
2022-11-20T10:09:00.283Z,96557.88
2022-11-20T10:12:14.451Z,96556.75
2022-11-20T10:15:11.381Z,96555.78
2022-11-20T10:18:19.297Z,96548.03
2022-11-20T10:21:12.033Z,96546.91
2022-11-20T10:24:28.378Z,96546.25
2022-11-20T10:31:04.490Z,96540.66
2022-11-20T10:34:11.646Z,96524.72
2022-11-20T10:37:11.736Z,96535.09
2022-11-20T10:40:17.052Z,96533.16
2022-11-20T10:43:15.831Z,96527.38
2022-11-20T10:46:47.348Z,96523.47
2022-11-20T10:50:41.661Z,96525.94
2022-11-20T10:53:59.166Z,96530.88
2022-11-20T10:57:29.325Z,96530.56
2022-11-20T11:03:40.577Z,96518.56
2022-11-20T11:07:24.830Z,96524.34
2022-11-20T11:14:57.220Z,96508.91
2022-11-20T11:17:53.967Z,96508.06
2022-11-20T11:20:58.541Z,96512.41
2022-11-20T11:23:49.499Z,96504.81
2022-11-20T11:26:39.279Z,96496.63
2022-11-20T11:32:50.750Z,96497.66
2022-11-20T11:47:20.798Z,96486.53
2022-11-20T11:55:10.107Z,96486.22
2022-11-20T12:03:23.185Z,96470.78
2022-11-20T12:06:31.099Z,96459.75
2022-11-20T12:09:37.682Z,96460.41
2022-11-20T12:12:57.352Z,96466.66
2022-11-20T12:16:21.285Z,96465.22
2022-11-20T12:19:55.496Z,96463.91
2022-11-20T12:23:26.535Z,96471.00
2022-11-20T13:29:44.964Z,96466.66
2022-11-20T13:34:03.551Z,96453.66
2022-11-20T13:37:34.507Z,96463.69
2022-11-20T13:43:44.558Z,96459.06
2022-11-20T13:46:43.085Z,96477.03
2022-11-20T13:50:01.712Z,96469.66
2022-11-20T13:53:26.153Z,96482.13
2022-11-20T13:56:39.746Z,96464.38
2022-11-20T13:59:37.627Z,96464.88
2022-11-20T14:02:26.964Z,96471.28
2022-11-20T14:05:23.661Z,96469.16
2022-11-20T14:08:28.724Z,96458.31
2022-11-20T14:11:19.636Z,96468.00
2022-11-20T14:14:25.434Z,96460.28
2022-11-20T14:17:24.384Z,96451.72
2022-11-20T14:20:24.436Z,96456.50
2022-11-20T14:23:14.309Z,96459.44
2022-11-20T14:26:03.692Z,96467.03
2022-11-20T14:28:52.074Z,96474.44
2022-11-20T14:31:38.984Z,96467.38
2022-11-20T14:34:28.922Z,96472.28
2022-11-20T14:37:39.304Z,96478.22
2022-11-20T14:40:41.015Z,96479.72
2022-11-20T14:43:37.262Z,96476.91
2022-11-20T14:46:24.984Z,96465.72
2022-11-20T14:49:15.904Z,96468.50
2022-11-20T14:52:15.471Z,96471.00
2022-11-20T14:55:08.008Z,96448.75
2022-11-20T14:58:08.387Z,96453.72
2022-11-20T15:00:57.478Z,96459.16
2022-11-20T15:03:46.513Z,96459.63
2022-11-20T15:06:36.445Z,96462.59
2022-11-20T15:09:26.965Z,96467.03
2022-11-20T15:12:19.033Z,96456.50
2022-11-20T15:15:07.136Z,96470.34
2022-11-20T15:17:54.545Z,96475.13
2022-11-20T15:20:41.935Z,96472.81
2022-11-20T15:23:38.270Z,96483.00
2022-11-20T15:26:29.883Z,96481.69
2022-11-20T15:29:29.919Z,96477.56
2022-11-20T15:32:16.813Z,96480.38
2022-11-20T15:35:06.917Z,96468.03
2022-11-20T15:38:00.820Z,96462.59
2022-11-20T15:40:49.247Z,96468.53
2022-11-20T15:43:48.943Z,96496.66
2022-11-20T15:46:45.504Z,96476.91
2022-11-20T15:49:32.349Z,96472.78
2022-11-20T15:52:19.582Z,96484.50
2022-11-20T15:55:10.966Z,96469.34
2022-11-20T15:57:57.867Z,96488.78
2022-11-20T16:00:45.442Z,96475.09
2022-11-20T16:03:44.019Z,96479.22
2022-11-20T16:06:32.977Z,96478.41
2022-11-20T16:09:22.681Z,96478.22
2022-11-20T16:12:30.701Z,96476.41
2022-11-20T16:15:39.304Z,96467.72
2022-11-20T16:18:26.157Z,96482.19
2022-11-20T16:21:16.148Z,96473.47
2022-11-20T16:24:05.056Z,96470.84
2022-11-20T16:26:52.392Z,96473.16
2022-11-20T16:29:39.314Z,96472.28
2022-11-20T16:32:26.346Z,96470.34
2022-11-20T16:35:16.412Z,96470.66
2022-11-20T16:38:03.430Z,96467.38
2022-11-20T16:40:56.617Z,96467.03
2022-11-20T16:43:48.309Z,96467.03
2022-11-20T16:46:35.577Z,96465.88
2022-11-20T16:49:22.393Z,96468.69
2022-11-20T16:52:09.218Z,96472.78
2022-11-20T16:54:55.972Z,96479.72
2022-11-20T16:57:43.387Z,96460.47
2022-11-20T17:00:30.208Z,96470.50
2022-11-20T17:03:18.119Z,96458.97
2022-11-20T17:06:15.415Z,96466.72
2022-11-20T17:09:02.508Z,96469.19
2022-11-20T17:11:52.530Z,96459.63
2022-11-20T17:14:39.319Z,96462.09
2022-11-20T17:17:26.128Z,96457.31
2022-11-20T17:20:13.255Z,96456.50
2022-11-20T17:23:02.562Z,96461.44
2022-11-20T17:25:49.366Z,96461.28
2022-11-20T17:28:38.742Z,96457.00
2022-11-20T17:31:31.808Z,96445.31
2022-11-20T17:34:23.411Z,96435.59
2022-11-20T17:37:12.129Z,96438.88
2022-11-20T17:39:59.281Z,96439.69
2022-11-20T17:43:04.506Z,96421.09
2022-11-20T17:45:58.565Z,96430.97
2022-11-20T17:48:45.988Z,96431.81
2022-11-20T17:51:35.285Z,96423.59
2022-11-20T17:54:36.628Z,96425.72
2022-11-20T17:57:59.345Z,96417.16
2022-11-20T18:00:57.214Z,96426.03
2022-11-20T18:03:46.740Z,96416.84
2022-11-20T18:06:33.760Z,96433.13
2022-11-20T18:09:22.014Z,96412.06
2022-11-20T18:12:17.523Z,96419.28
2022-11-20T18:15:13.326Z,96416.84
2022-11-20T18:18:22.772Z,96420.59
2022-11-20T18:21:11.669Z,96418.31
2022-11-20T18:24:01.181Z,96407.28
2022-11-20T18:26:49.550Z,96391.97
2022-11-20T18:29:36.487Z,96413.88
2022-11-20T18:32:35.297Z,96414.03
2022-11-20T18:35:29.112Z,96403.47
2022-11-20T18:38:18.709Z,96387.38
2022-11-20T18:41:05.645Z,96388.19
2022-11-20T18:44:12.520Z,96370.41
2022-11-20T18:47:14.118Z,96377.34
2022-11-20T18:50:37.384Z,96371.09
2022-11-20T18:53:33.202Z,96374.88
2022-11-20T19:04:06.609Z,96363.03
2022-11-20T19:07:04.269Z,96375.84
2022-11-20T19:10:35.635Z,96366.16
2022-11-20T19:13:28.435Z,96365.97
2022-11-20T19:16:38.393Z,96366.81
2022-11-20T19:19:38.508Z,96357.44
2022-11-20T19:22:39.034Z,96361.03
2022-11-20T19:25:48.140Z,96353.50
2022-11-20T19:28:39.177Z,96365.16
2022-11-20T19:32:03.662Z,96365.97
2022-11-20T19:47:19.433Z,96357.59
2022-11-20T19:50:18.972Z,96340.66
2022-11-20T19:53:33.452Z,96324.06
2022-11-20T19:56:56.214Z,96333.09
2022-11-20T20:00:32.392Z,96342.31
2022-11-20T20:03:27.400Z,96333.63
2022-11-20T20:10:56.708Z,96318.81
2022-11-20T20:13:42.392Z,96313.38
2022-11-20T20:16:52.240Z,96312.41
2022-11-20T20:19:42.184Z,96307.78
2022-11-20T20:22:38.216Z,96312.41
2022-11-20T20:26:06.982Z,96295.94
2022-11-20T20:30:31.731Z,96297.75
2022-11-20T20:32:14.033Z,96294.00
2022-11-20T20:35:21.246Z,96282.78
2022-11-20T20:38:34.610Z,96289.34
2022-11-20T20:43:55.950Z,96290.19
2022-11-20T20:45:48.950Z,96286.09
2022-11-20T20:51:57.102Z,96279.66
2022-11-20T20:54:52.621Z,96279.00
2022-11-20T20:57:53.838Z,96270.13
2022-11-20T21:01:00.594Z,96264.38
2022-11-20T21:04:35.376Z,96255.66
2022-11-20T21:07:23.676Z,96267.50
2022-11-20T21:10:13.186Z,96254.16
2022-11-20T21:13:10.204Z,96250.53
2022-11-20T21:16:13.195Z,96254.16
2022-11-20T21:19:07.400Z,96251.06
2022-11-20T21:22:36.431Z,96260.59
2022-11-20T21:25:28.943Z,96249.56
2022-11-20T21:28:25.790Z,96254.16
2022-11-20T21:31:44.722Z,96247.44
2022-11-20T21:34:42.522Z,96253.84
2022-11-20T21:37:34.969Z,96245.47
2022-11-20T21:40:24.157Z,96241.84
2022-11-20T21:43:11.277Z,96238.06
2022-11-20T21:46:12.004Z,96240.38
2022-11-20T21:49:15.587Z,96241.69
2022-11-20T21:52:05.327Z,96236.75
2022-11-20T21:54:58.657Z,96228.38
2022-11-20T21:58:12.010Z,96237.38
2022-11-20T22:01:18.053Z,96231.81
2022-11-20T22:04:15.738Z,96246.59
2022-11-20T22:07:10.018Z,96250.06
2022-11-20T22:09:57.108Z,96247.59
2022-11-20T22:12:44.178Z,96239.03
2022-11-20T22:15:53.497Z,96251.88
2022-11-20T22:18:48.609Z,96250.25
2022-11-20T22:21:39.441Z,96245.47
2022-11-20T22:24:26.431Z,96245.78
2022-11-20T22:27:13.433Z,96229.38
2022-11-20T22:30:03.630Z,96235.44
2022-11-20T22:32:56.658Z,96232.47
2022-11-20T22:35:44.941Z,96231.63
2022-11-20T22:38:39.045Z,96224.59
2022-11-20T22:41:28.188Z,96224.59
2022-11-20T22:44:16.099Z,96219.66
2022-11-20T22:47:06.288Z,96215.84
2022-11-20T22:50:04.067Z,96207.47
2022-11-20T22:52:53.976Z,96207.97
2022-11-20T22:55:40.774Z,96203.88
2022-11-20T22:58:31.286Z,96213.22
2022-11-20T23:01:22.263Z,96202.69
2022-11-20T23:04:10.691Z,96216.19
2022-11-20T23:06:57.529Z,96199.25
2022-11-20T23:09:44.409Z,96194.78
2022-11-20T23:12:31.285Z,96201.03
2022-11-20T23:15:21.078Z,96204.50
2022-11-20T23:18:07.862Z,96198.09
2022-11-20T23:20:54.714Z,96193.13
2022-11-20T23:23:42.455Z,96191.97
2022-11-20T23:26:31.607Z,96184.75
2022-11-20T23:29:18.729Z,96192.16
2022-11-20T23:32:08.314Z,96179.34
2022-11-20T23:34:57.680Z,96176.84
2022-11-20T23:37:44.555Z,96173.06
2022-11-20T23:40:31.343Z,96165.19
2022-11-20T23:43:20.927Z,96171.94
2022-11-20T23:46:17.156Z,96159.09
2022-11-20T23:49:06.334Z,96164.66
2022-11-20T23:51:56.009Z,96161.22
2022-11-20T23:54:42.819Z,96154.50
2022-11-20T23:57:29.660Z,96166.97
